Terminal Aerodrome Forecast
Issued by NWS

Home | Current Version | Previous Version | Text Only | Print | Product List | Glossary On
Versions: 1 2 3 4 5 6 7 8 9 10 11 12 13
000
FTUS44 KLZK 282300
TAFLLQ
TAF
KLLQ 282335Z 2900/2924 18007KT P6SM SKC WS020/20030KT
     FM290900 20009KT P6SM OVC012 WS020/22045KT
     FM291600 22015G25KT P6SM BKN025 WS020/22040KT=

USA.gov is the U.S. government's official web portal to all federal, state and local government web resources and services.